Time;durP1;ratioP1;P1;durP2;ratioP2;P2;SDS_P1;SDS_P2;PMS_P1;PMS_P2;Temp;Humidity;BMP_temperature;BMP_pressure;BME280_temperature;BME280_humidity;BME280_pressure;Samples;Min_cycle;Max_cycle;Signal;HPM_P1;HPM_P2
2023/05/06 00:04:55;;;;;;;14.18;6.00;;;;;;;;;;10244406;28;20122;-81
2023/05/06 00:09:56;;;;;;;9.25;5.70;;;;;;;;;;10246591;28;20027;-79
2023/05/06 00:14:57;;;;;;;10.57;5.60;;;;;;;;;;10243599;28;20023;-79
2023/05/06 00:19:58;;;;;;;10.07;5.57;;;;;;;;;;10251216;28;20035;-79
2023/05/06 00:24:59;;;;;;;13.50;5.55;;;;;;;;;;10247599;28;20050;-80
2023/05/06 00:30:00;;;;;;;8.00;5.18;;;;;;;;;;10247920;28;20031;-79
2023/05/06 00:35:02;;;;;;;10.73;5.75;;;;;;;;;;10250712;28;20035;-79
2023/05/06 00:40:03;;;;;;;7.63;5.25;;;;;;;;;;10245214;28;20041;-79
2023/05/06 00:45:05;;;;;;;10.68;6.45;;;;;;;;;;10246578;28;20043;-79
2023/05/06 00:50:07;;;;;;;9.73;5.80;;;;;;;;;;10253427;28;20039;-79
2023/05/06 00:55:08;;;;;;;13.27;6.13;;;;;;;;;;10243671;28;20027;-79
2023/05/06 01:00:10;;;;;;;11.50;5.90;;;;;;;;;;10254223;28;20059;-79
2023/05/06 01:05:11;;;;;;;8.83;6.00;;;;;;;;;;10249718;28;20035;-80
2023/05/06 01:10:21;;;;;;;11.07;5.83;;;;;;;;;;10228605;28;20042;-79
2023/05/06 01:15:28;;;;;;;10.73;5.70;;;;;;;;;;10242100;28;20091;-79
2023/05/06 01:20:29;;;;;;;11.07;5.90;;;;;;;;;;10242217;29;20082;-79
2023/05/06 01:25:32;;;;;;;15.93;5.90;;;;;;;;;;10241648;29;20047;-80
2023/05/06 01:30:38;;;;;;;10.43;5.17;;;;;;;;;;10241610;29;20030;-79
2023/05/06 01:35:59;;;;;;;11.15;6.15;;;;;;;;;;10223449;29;20699;-79
2023/05/06 01:41:01;;;;;;;12.07;6.33;;;;;;;;;;10242145;29;20027;-79
2023/05/06 01:46:02;;;;;;;10.70;5.83;;;;;;;;;;10240120;28;20035;-79
2023/05/06 01:51:04;;;;;;;10.95;5.13;;;;;;;;;;10241819;28;20034;-79
2023/05/06 01:56:05;;;;;;;11.00;5.97;;;;;;;;;;10243552;28;20383;-79
2023/05/06 02:01:06;;;;;;;12.43;6.03;;;;;;;;;;10248401;28;20047;-79
2023/05/06 02:06:07;;;;;;;10.00;5.80;;;;;;;;;;10243283;28;20047;-81
2023/05/06 02:11:08;;;;;;;8.97;5.27;;;;;;;;;;10240865;29;20479;-80
2023/05/06 02:16:10;;;;;;;9.57;5.53;;;;;;;;;;10222953;28;20121;-79
2023/05/06 02:21:11;;;;;;;11.80;5.93;;;;;;;;;;10242827;28;20872;-82
2023/05/06 02:26:12;;;;;;;10.03;6.00;;;;;;;;;;10240318;29;20126;-79
2023/05/06 02:31:17;;;;;;;9.53;5.93;;;;;;;;;;10241994;28;20031;-79
2023/05/06 02:36:18;;;;;;;10.90;5.37;;;;;;;;;;10251199;28;20110;-81
2023/05/06 02:41:19;;;;;;;9.93;5.57;;;;;;;;;;10240396;29;20042;-80
2023/05/06 02:46:20;;;;;;;10.63;5.87;;;;;;;;;;10226820;28;20082;-81
2023/05/06 02:51:22;;;;;;;9.93;5.53;;;;;;;;;;10232138;28;20054;-81
2023/05/06 02:56:23;;;;;;;8.47;5.27;;;;;;;;;;10240686;29;20467;-81
2023/05/06 03:01:24;;;;;;;8.77;5.37;;;;;;;;;;10271108;28;20053;-80
2023/05/06 03:06:27;;;;;;;10.00;5.13;;;;;;;;;;10280735;28;20047;-80
2023/05/06 03:11:30;;;;;;;10.50;6.13;;;;;;;;;;10286582;28;20038;-79
2023/05/06 03:16:34;;;;;;;10.37;5.83;;;;;;;;;;10287460;28;20117;-80
2023/05/06 03:21:35;;;;;;;8.77;6.00;;;;;;;;;;10284313;28;20454;-79
2023/05/06 03:26:36;;;;;;;10.53;5.43;;;;;;;;;;10285288;28;20051;-79
2023/05/06 03:31:37;;;;;;;11.48;6.07;;;;;;;;;;10284324;28;20043;-80
2023/05/06 03:36:38;;;;;;;10.33;6.47;;;;;;;;;;10284633;28;20109;-80
2023/05/06 03:41:39;;;;;;;10.73;5.80;;;;;;;;;;10285059;28;20034;-80
2023/05/06 03:46:40;;;;;;;12.00;6.50;;;;;;;;;;10282741;28;20039;-79
2023/05/06 03:51:41;;;;;;;11.10;5.43;;;;;;;;;;10283908;28;20054;-79
2023/05/06 03:56:42;;;;;;;12.40;6.17;;;;;;;;;;10284359;28;20031;-79
2023/05/06 04:01:43;;;;;;;8.90;5.50;;;;;;;;;;10275748;28;20062;-79
2023/05/06 04:06:44;;;;;;;7.67;4.80;;;;;;;;;;10284347;28;20102;-80
2023/05/06 04:11:45;;;;;;;9.77;4.77;;;;;;;;;;10266900;28;20031;-81
2023/05/06 04:16:48;;;;;;;10.47;5.10;;;;;;;;;;10282082;28;20043;-79
2023/05/06 04:21:49;;;;;;;11.50;5.40;;;;;;;;;;10284695;28;20066;-80
2023/05/06 04:26:50;;;;;;;9.83;5.83;;;;;;;;;;10283698;28;20050;-79
2023/05/06 04:31:52;;;;;;;13.52;5.28;;;;;;;;;;10281780;28;20039;-78
2023/05/06 04:36:53;;;;;;;10.70;5.68;;;;;;;;;;10277796;28;20030;-78
2023/05/06 04:41:54;;;;;;;9.80;5.23;;;;;;;;;;10282769;28;20027;-79
2023/05/06 04:46:55;;;;;;;8.07;5.23;;;;;;;;;;10281311;28;20053;-78
2023/05/06 04:51:56;;;;;;;7.27;5.20;;;;;;;;;;10263382;28;20037;-78
2023/05/06 04:56:57;;;;;;;8.60;4.95;;;;;;;;;;10268858;28;20033;-79
2023/05/06 05:01:58;;;;;;;8.37;5.03;;;;;;;;;;10278314;28;20059;-78
2023/05/06 05:06:59;;;;;;;10.70;5.20;;;;;;;;;;10280713;28;20039;-79
2023/05/06 05:12:01;;;;;;;9.57;5.07;;;;;;;;;;10281440;28;20039;-78
2023/05/06 05:17:02;;;;;;;9.35;4.82;;;;;;;;;;10273044;28;20035;-79
2023/05/06 05:22:03;;;;;;;6.72;4.90;;;;;;;;;;10277263;28;20031;-79
2023/05/06 05:27:04;;;;;;;7.13;4.90;;;;;;;;;;10280112;28;20050;-78
2023/05/06 05:32:05;;;;;;;7.80;4.80;;;;;;;;;;10280302;28;20031;-78
2023/05/06 05:37:06;;;;;;;8.80;4.75;;;;;;;;;;10282674;28;20026;-80
2023/05/06 05:42:07;;;;;;;10.25;5.40;;;;;;;;;;10286115;28;20031;-79
2023/05/06 05:47:08;;;;;;;9.45;5.57;;;;;;;;;;10278087;28;20090;-79
2023/05/06 05:52:09;;;;;;;9.85;6.18;;;;;;;;;;10276862;28;20058;-79
2023/05/06 05:57:10;;;;;;;13.40;6.85;;;;;;;;;;10283418;28;20162;-78
2023/05/06 06:02:11;;;;;;;19.25;7.03;;;;;;;;;;10279338;28;20054;-82
2023/05/06 06:07:14;;;;;;;25.90;7.28;;;;;;;;;;10279806;28;20050;-78
2023/05/06 06:12:16;;;;;;;12.93;6.63;;;;;;;;;;10279058;28;20042;-79
2023/05/06 06:17:17;;;;;;;14.25;7.80;;;;;;;;;;10279550;28;20045;-79
2023/05/06 06:22:20;;;;;;;14.60;6.93;;;;;;;;;;10275771;28;20045;-80
2023/05/06 06:27:21;;;;;;;14.85;7.65;;;;;;;;;;10278297;28;20508;-80
2023/05/06 06:32:22;;;;;;;14.13;7.32;;;;;;;;;;10277972;28;20038;-79
2023/05/06 06:37:23;;;;;;;15.85;7.30;;;;;;;;;;10270669;28;20030;-79
2023/05/06 06:42:26;;;;;;;15.40;7.22;;;;;;;;;;10282643;28;20038;-78
2023/05/06 06:47:27;;;;;;;15.18;8.32;;;;;;;;;;10284008;28;20035;-78
2023/05/06 06:52:29;;;;;;;15.63;7.15;;;;;;;;;;10285883;28;20023;-79
2023/05/06 06:57:30;;;;;;;13.32;7.88;;;;;;;;;;10284662;28;20100;-79
2023/05/06 07:02:33;;;;;;;15.88;7.28;;;;;;;;;;10229120;29;20119;-79
2023/05/06 07:07:34;;;;;;;11.90;6.35;;;;;;;;;;10247556;29;20046;-78
2023/05/06 07:12:35;;;;;;;12.93;6.45;;;;;;;;;;10246507;29;20113;-81
2023/05/06 07:17:36;;;;;;;16.85;6.85;;;;;;;;;;10244810;29;20543;-78
2023/05/06 07:22:37;;;;;;;12.35;6.20;;;;;;;;;;10245054;29;20041;-78
2023/05/06 07:27:38;;;;;;;12.93;7.05;;;;;;;;;;10246634;29;20039;-78
2023/05/06 07:32:40;;;;;;;12.25;5.90;;;;;;;;;;10245722;29;20657;-80
2023/05/06 07:37:43;;;;;;;10.05;6.50;;;;;;;;;;10246339;29;20471;-79
2023/05/06 07:42:44;;;;;;;11.43;6.22;;;;;;;;;;10245775;29;20039;-79
2023/05/06 07:47:45;;;;;;;13.23;6.53;;;;;;;;;;10245656;29;20376;-79
2023/05/06 07:52:46;;;;;;;11.50;6.45;;;;;;;;;;10244331;28;20039;-78
2023/05/06 07:57:47;;;;;;;11.75;6.38;;;;;;;;;;10248988;28;20055;-79
2023/05/06 08:02:48;;;;;;;12.25;6.35;;;;;;;;;;10284731;28;20035;-79
2023/05/06 08:07:49;;;;;;;13.10;6.88;;;;;;;;;;10284676;28;20484;-78
2023/05/06 08:12:51;;;;;;;17.63;7.05;;;;;;;;;;10284677;28;20113;-79
2023/05/06 08:17:52;;;;;;;12.15;6.65;;;;;;;;;;10284456;28;20043;-78
2023/05/06 08:22:53;;;;;;;12.95;6.22;;;;;;;;;;10284796;28;20023;-78
2023/05/06 08:27:55;;;;;;;13.90;7.07;;;;;;;;;;10264119;28;20090;-79
2023/05/06 08:32:56;;;;;;;12.02;7.35;;;;;;;;;;10283663;28;20030;-78
2023/05/06 08:38:01;;;;;;;14.90;6.75;;;;;;;;;;10284023;28;20530;-78
2023/05/06 08:43:02;;;;;;;15.18;7.78;;;;;;;;;;10283210;28;20333;-79
2023/05/06 08:48:03;;;;;;;16.80;7.20;;;;;;;;;;10283422;28;20715;-79
2023/05/06 08:53:05;;;;;;;16.48;7.20;;;;;;;;;;10284086;28;20035;-78
2023/05/06 08:58:07;;;;;;;11.27;6.22;;;;;;;;;;10283473;28;20082;-79
2023/05/06 09:03:08;;;;;;;10.30;5.22;;;;;;;;;;10282904;28;20528;-78
2023/05/06 09:08:10;;;;;;;10.52;6.10;;;;;;;;;;10283010;28;20072;-79
2023/05/06 09:13:15;;;;;;;9.52;6.28;;;;;;;;;;10282729;28;20137;-78
2023/05/06 09:18:16;;;;;;;11.80;6.00;;;;;;;;;;10282590;28;20023;-78
2023/05/06 09:23:17;;;;;;;9.23;5.72;;;;;;;;;;10282450;28;20035;-79
2023/05/06 09:28:20;;;;;;;11.05;5.78;;;;;;;;;;10269332;28;20049;-78
2023/05/06 09:33:21;;;;;;;11.73;5.78;;;;;;;;;;10281837;28;20849;-78
2023/05/06 09:38:26;;;;;;;8.30;5.70;;;;;;;;;;10281868;28;20035;-79
2023/05/06 09:43:27;;;;;;;9.35;5.95;;;;;;;;;;10281179;28;20049;-80
2023/05/06 09:48:35;;;;;;;11.68;6.95;;;;;;;;;;10281428;28;20090;-79
2023/05/06 09:53:36;;;;;;;16.08;7.35;;;;;;;;;;10282016;28;20038;-78
2023/05/06 09:58:37;;;;;;;15.25;7.53;;;;;;;;;;10281753;28;20066;-79
2023/05/06 10:03:39;;;;;;;13.52;8.88;;;;;;;;;;10281478;28;20039;-79
2023/05/06 10:08:44;;;;;;;14.15;9.65;;;;;;;;;;10280655;28;20037;-78
2023/05/06 10:13:45;;;;;;;26.00;14.18;;;;;;;;;;10281226;28;20035;-79
2023/05/06 10:18:50;;;;;;;33.63;18.08;;;;;;;;;;10286019;28;20364;-79
2023/05/06 10:23:55;;;;;;;39.97;18.55;;;;;;;;;;10288529;28;20139;-79
2023/05/06 10:28:56;;;;;;;158.43;78.90;;;;;;;;;;10288655;28;20042;-79
2023/05/06 10:33:59;;;;;;;83.40;52.13;;;;;;;;;;10288468;28;20905;-78
2023/05/06 10:39:02;;;;;;;171.43;91.15;;;;;;;;;;10288555;28;20038;-78
2023/05/06 10:44:03;;;;;;;301.92;162.00;;;;;;;;;;10287649;28;20038;-78
2023/05/06 10:49:07;;;;;;;129.02;73.38;;;;;;;;;;10288330;28;20030;-78
2023/05/06 10:54:09;;;;;;;72.90;41.72;;;;;;;;;;10287287;28;20027;-78
2023/05/06 10:59:14;;;;;;;73.97;42.25;;;;;;;;;;10287273;28;20053;-78
2023/05/06 11:04:18;;;;;;;107.38;68.20;;;;;;;;;;10287711;28;20046;-79
2023/05/06 11:09:20;;;;;;;160.00;101.78;;;;;;;;;;10287440;28;20038;-78
2023/05/06 11:14:31;;;;;;;85.22;53.50;;;;;;;;;;10274406;28;20061;-78
2023/05/06 11:19:33;;;;;;;90.78;51.75;;;;;;;;;;10285276;28;20507;-79
2023/05/06 11:24:41;;;;;;;77.75;43.22;;;;;;;;;;10286040;28;20045;-78
2023/05/06 11:29:42;;;;;;;62.45;33.50;;;;;;;;;;10283434;28;20110;-78
2023/05/06 11:34:44;;;;;;;718.10;417.83;;;;;;;;;;10284943;28;20598;-79
2023/05/06 11:39:50;;;;;;;138.02;74.40;;;;;;;;;;10285530;28;20509;-79
2023/05/06 11:44:53;;;;;;;;;;;;;;;;;;10285725;28;20050;-78
2023/05/06 11:49:55;;;;;;;75.72;39.78;;;;;;;;;;10286125;28;19906;-79
2023/05/06 11:54:55;;;;;;;76.55;39.42;;;;;;;;;;10285361;28;20126;-78
2023/05/06 11:59:59;;;;;;;65.53;33.90;;;;;;;;;;10282276;28;20061;-79
2023/05/06 12:05:02;;;;;;;73.60;38.13;;;;;;;;;;10284467;28;20122;-79
2023/05/06 12:10:04;;;;;;;72.18;40.60;;;;;;;;;;10287177;28;20073;-79
2023/05/06 12:15:05;;;;;;;92.00;49.15;;;;;;;;;;10284906;28;20122;-79
2023/05/06 12:20:07;;;;;;;77.30;42.72;;;;;;;;;;10283429;28;20031;-79
2023/05/06 12:25:14;;;;;;;193.15;106.30;;;;;;;;;;10283439;28;20508;-79
2023/05/06 12:30:15;;;;;;;152.27;92.05;;;;;;;;;;10283180;28;20037;-80
2023/05/06 12:35:26;;;;;;;352.52;172.65;;;;;;;;;;10283388;28;20770;-80
2023/05/06 12:40:27;;;;;;;315.70;124.07;;;;;;;;;;10282227;28;20030;-81
2023/05/06 12:45:33;;;;;;;396.73;243.20;;;;;;;;;;10285761;28;20380;-80
2023/05/06 12:50:35;;;;;;;179.45;83.25;;;;;;;;;;10283055;28;20042;-80
2023/05/06 12:55:37;;;;;;;895.72;557.47;;;;;;;;;;10282684;28;20103;-80
2023/05/06 13:00:38;;;;;;;802.85;468.17;;;;;;;;;;10283776;28;20051;-80
2023/05/06 13:05:39;;;;;;;182.73;89.20;;;;;;;;;;10282889;28;20487;-79
2023/05/06 13:10:42;;;;;;;233.80;130.75;;;;;;;;;;10282635;28;20030;-79
2023/05/06 13:15:48;;;;;;;145.35;88.40;;;;;;;;;;10281866;28;20034;-80
2023/05/06 13:20:49;;;;;;;;;;;;;;;;;;10268751;28;20129;-79
2023/05/06 13:25:50;;;;;;;110.18;48.03;;;;;;;;;;10282235;28;19918;-79
2023/05/06 13:30:52;;;;;;;241.70;130.07;;;;;;;;;;10281916;28;20031;-80
2023/05/06 13:35:55;;;;;;;101.38;43.90;;;;;;;;;;10282352;28;20033;-80
2023/05/06 13:40:58;;;;;;;163.43;81.47;;;;;;;;;;10279959;28;20501;-80
2023/05/06 13:46:02;;;;;;;184.30;96.55;;;;;;;;;;10281002;28;20041;-79
2023/05/06 13:51:03;;;;;;;91.80;43.97;;;;;;;;;;10281284;28;20141;-79
2023/05/06 13:56:07;;;;;;;101.43;46.65;;;;;;;;;;10281310;28;20113;-80
2023/05/06 14:01:08;;;;;;;112.93;52.85;;;;;;;;;;10280925;28;20082;-80
2023/05/06 14:06:09;;;;;;;121.13;53.70;;;;;;;;;;10277130;28;20956;-80
2023/05/06 14:11:10;;;;;;;99.63;47.05;;;;;;;;;;10274039;28;20043;-80
2023/05/06 14:16:11;;;;;;;112.65;50.58;;;;;;;;;;10280205;28;20123;-80
2023/05/06 14:21:16;;;;;;;99.68;49.20;;;;;;;;;;10267894;28;20034;-80
2023/05/06 14:26:20;;;;;;;96.85;45.75;;;;;;;;;;10280253;28;20046;-80
2023/05/06 14:31:23;;;;;;;102.47;51.78;;;;;;;;;;10266529;28;20110;-81
2023/05/06 14:36:28;;;;;;;110.47;51.85;;;;;;;;;;10280495;28;20387;-80
2023/05/06 14:41:31;;;;;;;113.50;56.03;;;;;;;;;;10261786;28;20035;-80
2023/05/06 14:46:31;;;;;;;96.53;46.15;;;;;;;;;;10267358;28;20142;-80
2023/05/06 14:51:34;;;;;;;112.13;53.05;;;;;;;;;;10279891;28;20049;-80
2023/05/06 14:56:35;;;;;;;98.97;48.33;;;;;;;;;;10279793;28;20042;-80
2023/05/06 15:01:36;;;;;;;120.60;55.35;;;;;;;;;;10280365;28;20062;-80
2023/05/06 15:06:39;;;;;;;105.28;53.55;;;;;;;;;;10286700;28;20070;-81
2023/05/06 15:11:43;;;;;;;106.70;54.13;;;;;;;;;;10269261;28;20042;-80
2023/05/06 15:16:44;;;;;;;92.28;46.85;;;;;;;;;;10286383;28;20399;-81
2023/05/06 15:21:45;;;;;;;80.18;39.90;;;;;;;;;;10286495;28;20031;-81
2023/05/06 15:26:46;;;;;;;75.72;40.10;;;;;;;;;;10286283;28;20050;-81
2023/05/06 15:31:50;;;;;;;79.28;39.83;;;;;;;;;;10284516;28;20814;-81
2023/05/06 15:36:52;;;;;;;79.80;38.08;;;;;;;;;;10267865;28;20035;-81
2023/05/06 15:41:53;;;;;;;73.55;35.85;;;;;;;;;;10231277;28;20035;-81
2023/05/06 15:46:54;;;;;;;76.43;39.80;;;;;;;;;;10249004;28;20086;-81
2023/05/06 15:51:55;;;;;;;98.78;47.97;;;;;;;;;;10249074;28;20542;-80
2023/05/06 15:56:59;;;;;;;75.03;37.88;;;;;;;;;;10244794;28;20685;-81
2023/05/06 16:02:00;;;;;;;82.57;39.83;;;;;;;;;;10244017;28;20398;-81
2023/05/06 16:07:01;;;;;;;67.13;34.22;;;;;;;;;;10244065;28;20126;-81
2023/05/06 16:12:02;;;;;;;65.50;32.25;;;;;;;;;;10244322;28;20035;-81
2023/05/06 16:17:06;;;;;;;63.63;32.90;;;;;;;;;;10242294;28;20035;-80
2023/05/06 16:22:07;;;;;;;65.75;33.80;;;;;;;;;;10243413;28;20062;-81
2023/05/06 16:27:08;;;;;;;68.72;32.72;;;;;;;;;;10243603;28;20046;-81
2023/05/06 16:32:09;;;;;;;68.38;33.38;;;;;;;;;;10248441;28;20122;-81
2023/05/06 16:37:10;;;;;;;68.97;34.60;;;;;;;;;;10243930;28;20020;-81
2023/05/06 16:42:11;;;;;;;66.13;34.10;;;;;;;;;;10242459;28;20362;-81
2023/05/06 16:47:13;;;;;;;73.07;38.72;;;;;;;;;;10242946;28;20141;-81
2023/05/06 16:52:19;;;;;;;65.70;33.90;;;;;;;;;;10225574;28;20030;-81
2023/05/06 16:57:20;;;;;;;71.68;37.90;;;;;;;;;;10242700;28;20436;-81
2023/05/06 17:02:21;;;;;;;61.03;34.00;;;;;;;;;;10282186;28;20048;-81
2023/05/06 17:07:22;;;;;;;66.38;34.38;;;;;;;;;;10282180;28;20046;-81
2023/05/06 17:12:24;;;;;;;67.50;35.13;;;;;;;;;;10283215;28;20086;-81
2023/05/06 17:17:27;;;;;;;76.57;36.95;;;;;;;;;;10281376;28;20031;-81
2023/05/06 17:22:28;;;;;;;75.57;35.45;;;;;;;;;;10279833;28;20045;-81
2023/05/06 17:27:31;;;;;;;62.42;33.08;;;;;;;;;;10280930;28;20047;-81
2023/05/06 17:32:32;;;;;;;56.30;30.88;;;;;;;;;;10280061;28;20498;-81
2023/05/06 17:37:38;;;;;;;64.10;32.10;;;;;;;;;;10281646;28;20045;-81
2023/05/06 17:42:41;;;;;;;75.10;33.13;;;;;;;;;;10282014;28;20076;-81
2023/05/06 17:47:42;;;;;;;72.35;35.13;;;;;;;;;;10282344;28;20039;-81
2023/05/06 17:52:49;;;;;;;71.80;35.70;;;;;;;;;;10280991;28;20411;-80
2023/05/06 17:57:51;;;;;;;66.63;35.20;;;;;;;;;;10281567;28;20059;-80
2023/05/06 18:02:52;;;;;;;75.68;36.80;;;;;;;;;;10281387;28;20023;-81
2023/05/06 18:07:53;;;;;;;88.25;38.75;;;;;;;;;;10280864;28;20371;-81
2023/05/06 18:12:56;;;;;;;84.35;38.78;;;;;;;;;;10281003;28;20035;-80
2023/05/06 18:17:57;;;;;;;81.03;37.17;;;;;;;;;;10280935;28;20034;-81
2023/05/06 18:22:58;;;;;;;84.68;39.08;;;;;;;;;;10266552;28;20035;-80
2023/05/06 18:27:59;;;;;;;83.55;38.60;;;;;;;;;;10263246;28;20045;-80
2023/05/06 18:33:00;;;;;;;82.32;38.90;;;;;;;;;;10280655;28;20029;-81
2023/05/06 18:38:06;;;;;;;68.78;34.63;;;;;;;;;;10283438;28;20390;-82
2023/05/06 18:43:13;;;;;;;72.55;35.25;;;;;;;;;;10288943;28;20042;-81
2023/05/06 18:48:15;;;;;;;79.65;36.40;;;;;;;;;;10277324;28;20517;-80
2023/05/06 18:53:17;;;;;;;84.90;42.13;;;;;;;;;;10285324;28;20435;-80
2023/05/06 18:58:18;;;;;;;93.53;47.28;;;;;;;;;;10287744;28;20084;-81
2023/05/06 19:03:19;;;;;;;71.20;34.22;;;;;;;;;;10286045;28;20064;-80
2023/05/06 19:08:20;;;;;;;67.80;31.20;;;;;;;;;;10286454;28;20045;-80
2023/05/06 19:13:21;;;;;;;56.20;29.33;;;;;;;;;;10287019;28;20088;-80
2023/05/06 19:18:24;;;;;;;59.33;29.75;;;;;;;;;;10278628;28;20917;-80
2023/05/06 19:23:27;;;;;;;57.92;28.55;;;;;;;;;;10285604;28;20037;-80
2023/05/06 19:28:33;;;;;;;58.10;29.98;;;;;;;;;;10285951;28;20057;-80
2023/05/06 19:33:34;;;;;;;;;;;;;;;;;;10285557;28;20109;-81
2023/05/06 19:38:35;;;;;;;65.80;32.53;;;;;;;;;;10265187;28;20472;-81
2023/05/06 19:43:40;;;;;;;62.28;33.38;;;;;;;;;;10286618;28;20045;-80
2023/05/06 19:48:41;;;;;;;61.55;31.83;;;;;;;;;;10286038;28;20043;-80
2023/05/06 19:53:45;;;;;;;65.63;34.47;;;;;;;;;;10286021;28;20710;-81
2023/05/06 19:58:46;;;;;;;75.30;36.25;;;;;;;;;;10267798;28;20058;-80
2023/05/06 20:03:47;;;;;;;70.25;34.80;;;;;;;;;;10285089;28;20356;-80
2023/05/06 20:08:48;;;;;;;64.22;33.42;;;;;;;;;;10259164;28;20663;-80
2023/05/06 20:13:49;;;;;;;62.40;32.58;;;;;;;;;;10285399;28;20034;-79
2023/05/06 20:18:54;;;;;;;65.72;34.05;;;;;;;;;;10284675;28;20523;-80
2023/05/06 20:23:55;;;;;;;58.45;30.45;;;;;;;;;;10267124;28;20710;-80
2023/05/06 20:28:56;;;;;;;59.25;29.60;;;;;;;;;;10266747;28;20055;-80
2023/05/06 20:33:57;;;;;;;62.13;30.67;;;;;;;;;;10272038;28;20031;-81
2023/05/06 20:38:59;;;;;;;69.97;36.63;;;;;;;;;;10284286;28;20034;-81
2023/05/06 20:44:00;;;;;;;99.28;47.28;;;;;;;;;;10284008;28;20030;-80
2023/05/06 20:49:01;;;;;;;71.68;36.08;;;;;;;;;;10283916;28;20065;-81
2023/05/06 20:54:06;;;;;;;70.25;34.97;;;;;;;;;;10283942;28;20097;-80
2023/05/06 20:59:07;;;;;;;74.75;37.53;;;;;;;;;;10283351;28;20058;-80
2023/05/06 21:04:08;;;;;;;64.90;32.13;;;;;;;;;;10283292;28;20019;-80
2023/05/06 21:09:09;;;;;;;40.33;21.17;;;;;;;;;;10282675;28;20126;-80
2023/05/06 21:14:11;;;;;;;37.38;20.40;;;;;;;;;;10283416;28;20710;-80
2023/05/06 21:19:12;;;;;;;38.70;19.98;;;;;;;;;;10282512;28;20612;-80
2023/05/06 21:24:13;;;;;;;34.28;17.70;;;;;;;;;;10282936;28;20026;-80
2023/05/06 21:29:14;;;;;;;31.73;17.38;;;;;;;;;;10282234;28;20039;-80
2023/05/06 21:34:15;;;;;;;33.35;19.08;;;;;;;;;;10281993;28;20529;-80
2023/05/06 21:39:16;;;;;;;32.58;18.08;;;;;;;;;;10282963;28;20493;-81
2023/05/06 21:44:17;;;;;;;35.42;18.92;;;;;;;;;;10281913;28;20124;-80
2023/05/06 21:49:25;;;;;;;36.30;18.48;;;;;;;;;;10282139;28;20498;-80
2023/05/06 21:54:26;;;;;;;43.72;19.67;;;;;;;;;;10281777;28;20034;-80
2023/05/06 21:59:27;;;;;;;38.90;21.15;;;;;;;;;;10281945;28;20100;-80
2023/05/06 22:04:28;;;;;;;41.10;21.25;;;;;;;;;;10281588;28;20030;-80
2023/05/06 22:09:29;;;;;;;40.88;20.45;;;;;;;;;;10281541;28;20034;-80
2023/05/06 22:14:30;;;;;;;35.05;18.33;;;;;;;;;;10280574;28;20074;-80
2023/05/06 22:19:31;;;;;;;45.28;20.58;;;;;;;;;;10281034;28;20053;-80
2023/05/06 22:24:32;;;;;;;37.05;18.77;;;;;;;;;;10281605;28;20033;-80
2023/05/06 22:29:36;;;;;;;39.50;21.13;;;;;;;;;;10281202;28;20046;-80
2023/05/06 22:34:37;;;;;;;36.03;18.25;;;;;;;;;;10280811;28;20031;-80
2023/05/06 22:39:38;;;;;;;45.58;21.55;;;;;;;;;;10281400;28;20386;-80
2023/05/06 22:44:39;;;;;;;37.35;20.00;;;;;;;;;;10280667;28;20051;-80
2023/05/06 22:49:40;;;;;;;38.20;21.13;;;;;;;;;;10281019;28;20042;-80
2023/05/06 22:54:46;;;;;;;41.30;21.20;;;;;;;;;;10281530;28;20035;-80
2023/05/06 22:59:47;;;;;;;52.42;23.75;;;;;;;;;;10280842;28;20055;-80
2023/05/06 23:04:47;;;;;;;48.60;22.70;;;;;;;;;;10280445;28;20430;-80
2023/05/06 23:09:48;;;;;;;49.57;23.03;;;;;;;;;;10279752;28;20037;-80
2023/05/06 23:14:52;;;;;;;53.87;24.73;;;;;;;;;;10280806;28;20022;-80
2023/05/06 23:19:53;;;;;;;41.97;19.83;;;;;;;;;;10279908;28;20138;-81
2023/05/06 23:24:54;;;;;;;46.10;22.00;;;;;;;;;;10283799;28;20045;-80
2023/05/06 23:29:55;;;;;;;51.00;21.45;;;;;;;;;;10279204;28;20118;-80
2023/05/06 23:34:56;;;;;;;46.67;20.90;;;;;;;;;;10283355;28;20082;-80
2023/05/06 23:39:57;;;;;;;42.10;17.47;;;;;;;;;;10269513;28;20117;-80
2023/05/06 23:44:59;;;;;;;46.63;17.83;;;;;;;;;;10286129;28;20030;-80
2023/05/06 23:50:01;;;;;;;48.63;20.17;;;;;;;;;;10286311;28;20056;-80
2023/05/06 23:55:01;;;;;;;44.97;18.43;;;;;;;;;;10285671;28;20035;-80
